Latest Weather Observations for Brisbane

IDQ60801

Issued at 6:35 pm EST Thursday 28 August 2014 (issued every 30 minutes, with the page automatically refreshed every 10 minutes)

About weather observations | Map of weather stations | Latest weather observations for QLD | Other Formats
Station Details ID: 040913 Name: BRISBANE Lat: -27.48 Lon: 153.04 Height: 8.13 m
Data from the previous 72 hours. | See also: Recent months at Brisbane
Date/Time
EST
Temp
°C
App
Temp
°C
Dew
Point
Rel
Hum
%
Delta-T
°C
Wind Press
QNH
hPa
Press
MSL
hPa
Rain
since 9 am
mm
Dir
 
Spd
km/h
Gust
km/h
Spd
kts
Gust
kts
28/06:30pm 18.2 16.7 9.0 55 4.8 S 7 11 4 6 1020.5 1020.5 0.0
28/06:00pm 18.8 17.0 9.3 54 5.0 S 9 19 5 10 1019.9 1019.9 0.0
28/05:30pm 19.5 17.6 9.1 51 5.5 SSW 9 28 5 15 1019.6 1019.6 0.0
28/05:00pm 20.9 18.3 9.2 47 6.2 SSW 13 24 7 13 1019.0 1019.0 0.0
28/04:30pm 22.3 19.4 6.5 36 8.1 S 11 19 6 10 1018.2 1018.2 0.0
28/04:00pm 22.2 19.3 6.4 36 8.0 S 11 22 6 12 1017.8 1017.8 0.0
28/03:30pm 22.1 19.4 8.9 43 7.0 SSW 13 26 7 14 1017.5 1017.5 0.0
28/03:00pm 22.6 19.9 7.2 37 8.0 S 11 24 6 13 1017.2 1017.2 0.0
28/02:30pm 22.8 18.8 6.6 35 8.3 S 17 32 9 17 1017.0 1017.0 0.0
28/02:00pm 22.8 20.2 7.8 38 7.8 S 11 22 6 12 1016.8 1016.8 0.0
28/01:30pm 23.6 20.8 8.5 38 8.0 S 13 22 7 12 1016.8 1016.8 0.0
28/01:00pm 21.8 19.2 9.3 45 6.7 S 13 28 7 15 1016.6 1016.6 0.0
28/12:30pm 21.5 19.9 10.3 49 6.1 SSW 9 28 5 15 1016.6 1016.6 0.0
28/12:00pm 21.7 19.3 9.9 47 6.4 S 13 35 7 19 1016.6 1016.6 0.0
28/11:30am 21.1 19.2 10.6 51 5.7 S 11 28 6 15 1016.7 1016.7 0.0
28/11:00am 20.7 18.6 11.3 55 5.2 S 13 24 7 13 1016.7 1016.7 0.0
28/10:30am 19.7 17.2 11.2 58 4.7 SSW 15 30 8 16 1016.9 1016.9 0.0
28/10:00am 19.3 17.2 11.3 60 4.4 SSW 13 30 7 16 1016.9 1016.9 0.0
28/09:30am 19.6 17.6 11.4 59 4.5 SSW 13 24 7 13 1016.4 1016.4 0.0
28/09:00am 19.5 17.8 12.3 63 4.0 SSW 13 24 7 13 1016.2 1016.2 3.6
28/08:30am 17.5 16.9 12.2 71 2.9 SW 7 17 4 9 1015.8 1015.8 3.6
28/08:00am 16.4 15.4 12.2 76 2.3 SW 9 20 5 11 1015.8 1015.8 3.6
28/07:30am 15.3 14.7 12.4 83 1.6 WSW 7 15 4 8 1015.3 1015.3 3.6
28/07:00am 14.7 13.3 12.2 85 1.4 WSW 11 20 6 11 1015.2 1015.2 3.6
28/06:30am 14.2 13.1 12.1 87 1.1 WSW 9 17 5 9 1015.1 1015.1 3.6
28/06:00am 14.1 13.0 11.8 86 1.2 WSW 9 19 5 10 1014.4 1014.4 3.6
28/05:30am 13.6 12.5 11.8 89 1.0 WSW 9 19 5 10 1014.1 1014.1 3.6
28/05:00am 12.9 12.0 11.5 91 0.7 W 7 15 4 8 1013.8 1013.8 3.6
28/04:30am 12.9 12.2 11.3 90 0.8 WSW 6 11 3 6 1013.6 1013.6 3.6
28/04:00am 12.9 12.1 11.1 89 0.9 WSW 6 11 3 6 1013.5 1013.5 3.4
28/03:30am 13.2 12.4 10.9 86 1.2 SW 6 13 3 7 1013.7 1013.7 3.2
28/03:00am 13.5 12.2 10.1 80 1.8 WSW 7 11 4 6 1013.8 1013.8 2.8
28/02:30am 13.1 11.8 9.9 81 1.6 WSW 7 15 4 8 1014.0 1014.0 2.8
28/02:00am 12.9 12.0 9.4 79 1.8 SW 4 9 2 5 1014.3 1014.3 2.8
28/01:30am 13.0 12.1 9.3 78 1.9 SW 4 9 2 5 1014.3 1014.3 2.8
28/01:00am 13.2 12.3 9.1 76 2.1 WSW 4 9 2 5 1014.3 1014.3 2.8
28/12:30am 13.3 11.5 9.4 77 2.0 WSW 9 17 5 9 1014.3 1014.3 2.8
28/12:00am 12.9 11.6 9.2 78 1.9 WSW 6 11 3 6 1014.5 1014.5 2.8
 
Date/Time
EST
Temp
°C
App
Temp
°C
Dew
Point
Rel
Hum
%
Delta-T
°C
Wind Press
QNH
hPa
Press
MSL
hPa
Rain
since 9 am
mm
Dir
 
Spd
km/h
Gust
km/h
Spd
kts
Gust
kts
27/11:30pm 12.9 11.4 9.2 78 1.9 WSW 7 13 4 7 1014.3 1014.3 2.8
27/11:00pm 13.1 11.6 9.0 76 2.1 WSW 7 15 4 8 1014.5 1014.5 2.8
27/10:30pm 13.4 12.0 8.9 74 2.3 WSW 6 9 3 5 1014.3 1014.3 2.8
27/10:00pm 13.5 12.1 9.4 76 2.1 W 7 15 4 8 1014.2 1014.2 2.8
27/09:30pm 13.6 12.2 9.5 76 2.1 W 7 13 4 7 1014.5 1014.5 2.8
27/09:00pm 14.1 12.6 9.1 72 2.5 W 7 15 4 8 1014.5 1014.5 2.8
27/08:30pm 14.4 12.5 9.2 71 2.7 W 9 17 5 9 1014.6 1014.6 2.8
27/08:00pm 14.6 12.8 9.6 72 2.6 W 9 19 5 10 1014.5 1014.5 2.8
27/07:30pm 14.9 12.9 10.1 73 2.5 W 11 19 6 10 1014.3 1014.3 2.8
27/07:00pm 14.7 13.2 10.7 77 2.1 W 9 19 5 10 1014.6 1014.6 2.8
27/06:30pm 14.2 12.9 11.4 83 1.5 W 9 17 5 9 1014.3 1014.3 2.8
27/06:00pm 13.9 12.3 11.4 85 1.3 W 11 19 6 10 1014.2 1014.2 2.8
27/05:30pm 13.8 12.2 11.7 87 1.1 WSW 11 28 6 15 1014.6 1014.6 2.8
27/05:00pm 14.1 12.2 11.8 86 1.2 W 13 26 7 14 1014.6 1014.6 2.6
27/04:30pm 14.1 12.7 12.1 88 1.1 WSW 11 26 6 14 1014.3 1014.3 2.4
27/04:00pm 14.3 12.5 12.2 87 1.1 W 13 24 7 13 1013.8 1013.8 1.6
27/03:30pm 17.0 12.8 9.7 62 3.8 W 22 35 12 19 1013.4 1013.4 0.0
27/03:00pm 21.0 18.9 9.6 48 6.1 S 11 19 6 10 1012.2 1012.2 0.0
27/02:30pm 21.6 19.9 9.8 47 6.4 S 9 20 5 11 1012.4 1012.4 0.0
27/02:00pm 21.8 19.5 10.6 49 6.1 S 13 24 7 13 1012.7 1012.7 0.0
27/01:30pm 22.0 19.3 10.2 47 6.4 SSE 15 26 8 14 1012.9 1012.9 0.0
27/01:00pm 23.1 21.9 10.2 44 7.1 SSW 7 13 4 7 1013.1 1013.1 0.0
27/12:30pm 23.3 22.0 10.0 43 7.3 WSW 7 17 4 9 1013.7 1013.7 0.0
27/12:00pm 22.3 19.9 10.1 46 6.6 W 13 20 7 11 1014.3 1014.3 0.0
27/11:30am 21.8 19.6 9.3 45 6.7 W 11 24 6 13 1014.9 1014.9 0.0
27/11:00am 21.5 20.6 11.5 53 5.6 WSW 7 15 4 8 1015.4 1015.4 0.0
27/10:30am 20.8 19.9 11.4 55 5.2 W 7 15 4 8 1015.9 1015.9 0.0
27/10:00am 19.5 17.8 11.3 59 4.5 W 11 20 6 11 1016.1 1016.1 0.0
27/09:30am 19.2 18.0 11.5 61 4.2 SW 9 15 5 8 1016.3 1016.3 0.0
27/09:00am 18.4 17.2 11.7 65 3.7 WSW 9 19 5 10 1016.3 1016.3 0.0
27/08:30am 17.4 16.0 11.0 66 3.4 SW 9 17 5 9 1016.2 1016.2 0.0
27/08:00am 16.8 15.8 11.1 69 3.1 WSW 7 17 4 9 1016.2 1016.2 0.0
27/07:30am 16.1 15.1 11.1 72 2.7 WSW 7 17 4 9 1015.9 1015.9 0.0
27/07:00am 15.1 14.1 10.9 76 2.2 WSW 7 15 4 8 1015.6 1015.6 0.0
27/06:30am 14.1 13.4 11.4 84 1.4 WSW 6 11 3 6 1015.3 1015.3 0.0
27/06:00am 13.1 12.3 11.2 88 1.0 WSW 6 9 3 5 1014.8 1014.8 0.0
27/05:30am 12.4 12.7 10.8 90 0.8 CALM 0 2 0 1 1014.4 1014.4 0.0
27/05:00am 12.1 12.2 10.0 87 1.1 CALM 0 4 0 2 1014.2 1014.2 0.0
27/04:30am 13.2 13.1 10.7 85 1.3 WSW 2 6 1 3 1014.6 1014.6 0.0
27/04:00am 13.2 13.1 10.9 86 1.2 W 2 6 1 3 1014.7 1014.7 0.0
27/03:30am 13.9 14.1 10.7 81 1.7 CALM 0 0 0 0 1014.8 1014.8 0.0
27/03:00am 14.8 14.4 11.0 78 2.0 SW 4 7 2 4 1015.1 1015.1 0.0
27/02:30am 15.1 14.4 11.3 78 2.0 WSW 6 9 3 5 1015.4 1015.4 0.0
27/02:00am 15.4 14.5 11.4 77 2.1 WSW 7 17 4 9 1015.8 1015.8 0.0
27/01:30am 15.2 14.4 11.8 80 1.8 W 7 15 4 8 1016.0 1016.0 0.0
27/01:00am 14.6 14.0 11.6 82 1.6 WSW 6 9 3 5 1016.1 1016.1 0.0
27/12:30am 15.1 14.8 11.5 79 1.9 SW 4 9 2 5 1016.2 1016.2 0.0
27/12:00am 15.6 15.3 11.6 77 2.2 WSW 4 9 2 5 1016.2 1016.2 0.0
 
Date/Time
EST
Temp
°C
App
Temp
°C
Dew
Point
Rel
Hum
%
Delta-T
°C
Wind Press
QNH
hPa
Press
MSL
hPa
Rain
since 9 am
mm
Dir
 
Spd
km/h
Gust
km/h
Spd
kts
Gust
kts
26/11:30pm 15.9 15.6 11.5 75 2.4 WSW 4 9 2 5 1016.6 1016.6 0.0
26/11:00pm 15.8 15.2 11.6 76 2.3 WSW 6 9 3 5 1016.7 1016.7 0.0
26/10:30pm 16.2 16.0 11.8 75 2.4 WSW 4 9 2 5 1016.8 1016.8 0.0
26/10:00pm 16.4 16.1 11.6 73 2.6 SW 4 7 2 4 1016.8 1016.8 0.0
26/09:30pm 16.8 16.6 11.7 72 2.8 WSW 4 11 2 6 1017.0 1017.0 0.0
26/09:00pm 17.1 17.2 11.6 70 3.0 SSW 2 7 1 4 1017.1 1017.1 0.0
26/08:30pm 17.8 17.7 12.0 69 3.2 S 4 7 2 4 1016.9 1016.9 0.0
26/08:00pm 18.1 17.7 12.3 69 3.2 SSE 6 13 3 7 1016.8 1016.8 0.0
26/07:30pm 18.4 17.8 12.2 67 3.4 SE 7 15 4 8 1016.6 1016.6 0.0
26/07:00pm 18.5 17.5 12.3 67 3.4 SE 9 20 5 11 1016.3 1016.3 0.0
26/06:30pm 18.9 17.3 11.5 62 4.1 ESE 11 19 6 10 1016.0 1016.0 0.0
26/06:00pm 19.4 17.6 12.2 63 4.0 ESE 13 24 7 13 1015.6 1015.6 0.0
26/05:30pm 19.9 18.7 12.7 63 4.1 E 11 19 6 10 1015.2 1015.2 0.0
26/05:00pm 21.0 19.7 12.4 58 4.8 ESE 11 19 6 10 1014.8 1014.8 0.0
26/04:30pm 21.9 20.4 13.0 57 5.1 E 13 20 7 11 1014.5 1014.5 0.0
26/04:00pm 22.7 21.2 9.1 42 7.3 E 7 13 4 7 1014.3 1014.3 0.0
26/03:30pm 23.2 21.8 8.9 40 7.7 SE 6 17 3 9 1014.3 1014.3 0.0
26/03:00pm 23.7 21.9 9.3 40 7.8 SSE 9 15 5 8 1014.3 1014.3 0.0
26/02:30pm 23.8 22.7 10.8 44 7.2 ESE 7 15 4 8 1014.4 1014.4 0.0
26/02:00pm 23.4 22.2 11.5 47 6.7 SSE 9 19 5 10 1014.8 1014.8 0.0
26/01:30pm 22.9 21.8 11.9 50 6.2 SE 9 19 5 10 1015.2 1015.2 0.0
26/01:00pm 22.6 21.0 11.7 50 6.1 SE 11 20 6 11 1015.7 1015.7 0.0
26/12:30pm 22.2 20.6 11.6 51 5.9 SE 11 19 6 10 1016.1 1016.1 0.0
26/12:00pm 21.6 21.0 11.6 53 5.6 SSW 6 13 3 7 1016.6 1016.6 0.0
26/11:30am 22.0 21.1 11.4 51 5.9 SSW 7 17 4 9 1017.1 1017.1 0.0
26/11:00am 22.2 21.0 11.6 51 5.9 S 9 19 5 10 1017.5 1017.5 0.0
26/10:30am 21.6 20.9 11.9 54 5.4 S 7 20 4 11 1017.7 1017.7 0.0
26/10:00am 20.6 20.1 12.6 60 4.5 WSW 7 15 4 8 1018.1 1018.1 0.0
26/09:30am 19.4 18.7 11.9 62 4.2 SW 7 19 4 10 1018.3 1018.3 0.0
26/09:00am 18.4 17.7 11.5 64 3.8 WSW 6 15 3 8 1018.3 1018.3 0.0
26/08:30am 18.0 17.4 11.6 66 3.5 SW 6 17 3 9 1018.3 1018.3 0.0
26/08:00am 17.0 16.5 11.9 72 2.8 SW 6 17 3 9 1018.1 1018.1 0.0
26/07:30am 15.6 15.3 11.4 76 2.3 SW 4 9 2 5 1018.2 1018.2 0.0
26/07:00am 14.0 13.5 10.8 81 1.7 WSW 4 7 2 4 1018.1 1018.1 0.0
26/06:30am 13.0 12.5 10.7 86 1.2 WSW 4 7 2 4 1017.7 1017.7 0.0
26/06:00am 13.1 12.6 10.8 86 1.2 SW 4 11 2 6 1017.6 1017.6 0.0
26/05:30am 13.1 12.6 10.8 86 1.2 WSW 4 7 2 4 1017.1 1017.1 0.0
26/05:00am 12.9 12.4 10.8 87 1.1 WSW 4 7 2 4 1016.8 1016.8 0.0
26/04:30am 12.9 12.4 10.6 86 1.2 WSW 4 7 2 4 1016.7 1016.7 0.0
26/04:00am 13.2 12.7 10.7 85 1.3 WSW 4 6 2 3 1016.9 1016.9 0.0
26/03:30am 13.5 13.0 10.9 84 1.4 WSW 4 7 2 4 1017.0 1017.0 0.0
26/03:00am 13.7 13.3 11.2 85 1.3 WSW 4 7 2 4 1017.2 1017.2 0.0
26/02:30am 13.7 13.3 11.0 84 1.4 SW 4 7 2 4 1017.6 1017.6 0.0
26/02:00am 13.5 13.4 10.7 83 1.5 SW 2 4 1 2 1017.9 1017.9 0.0
26/01:30am 13.8 13.4 11.0 83 1.5 WSW 4 6 2 3 1018.2 1018.2 0.0
26/01:00am 13.8 13.0 11.0 83 1.5 WSW 6 9 3 5 1018.4 1018.4 0.0
26/12:30am 14.0 13.2 11.0 82 1.6 W 6 7 3 4 1018.8 1018.8 0.0
26/12:00am 14.5 13.7 10.9 79 1.9 WSW 6 9 3 5 1018.9 1018.9 0.0
 
Date/Time
EST
Temp
°C
App
Temp
°C
Dew
Point
Rel
Hum
%
Delta-T
°C
Wind Press
QNH
hPa
Press
MSL
hPa
Rain
since 9 am
mm
Dir
 
Spd
km/h
Gust
km/h
Spd
kts
Gust
kts
25/11:30pm 14.7 14.2 10.9 78 2.0 WSW 4 7 2 4 1019.0 1019.0 0.0
25/11:00pm 15.1 14.6 10.9 76 2.2 WSW 4 7 2 4 1019.1 1019.1 0.0
25/10:30pm 15.4 15.1 11.4 77 2.1 WSW 4 7 2 4 1019.4 1019.4 0.0
25/10:00pm 15.6 15.2 11.2 75 2.3 SW 4 11 2 6 1019.5 1019.5 0.0
25/09:30pm 15.9 15.2 11.3 74 2.5 WSW 6 9 3 5 1019.7 1019.7 0.0
25/09:00pm 15.9 15.6 11.5 75 2.4 WSW 4 7 2 4 1019.6 1019.6 0.0
25/08:30pm 16.4 16.2 11.8 74 2.5 SW 4 7 2 4 1019.7 1019.7 0.0
25/08:00pm 16.9 16.5 11.2 69 3.1 SSW 4 7 2 4 1019.8 1019.8 0.0
25/07:30pm 16.6 16.5 10.9 69 3.1 SSW 2 6 1 3 1019.6 1019.6 0.0
25/07:00pm 17.3 17.2 10.9 66 3.4 SSE 2 7 1 4 1019.5 1019.5 0.0

Other Formats:

Comma delimited format used in spreadsheet applications
http://www.bom.gov.au/fwo/IDQ60801/IDQ60801.94576.axf

JavaScript Object Notation format (JSON) in row-major order
http://www.bom.gov.au/fwo/IDQ60801/IDQ60801.94576.json